Airfield :
LOGIN :

Register | Disclaimer

   EN    FR    IT 

 










Legend :    VFR   Marginal VFR   IFR   Intensive IFR   Very Intensive IFR
Visi :
Ceiling :
>= 8 km
>= 3000ft
5 to 8 km
1000 to 3000 ft
1500m to 5 km
500 to 1000 ft
800 to 1500m
200 to 500 ft
< 800m
< 200 ft
Symbols :   Thunderstorms  Fog  Heavy snow  Heavy precipitations  Wind > 20 kt
SIGMETs :     Misc.  Thunderstorms  Icing  Turbulence  Mountain Waves  Volcanic Ashes







- Airport Elevation : 383 ft
- IATA code : UDJ


UKLU - Uzhhorod

CURRENT METAR :
  • 201400Z 30005MPS 260V330 9999 NSC 26/18 Q1011 R10/090070 NOSIG

EXPIRED METARs :
  • 201330Z 30004MPS 240V010 9999 NSC 25/19 Q1010 R10/090070 NOSIG
  • 201300Z 29004MPS 240V320 9999 NSC 25/19 Q1011 R10/090070 NOSIG
  • 201230Z 28004MPS 9999 NSC 25/19 Q1011 R10/090070 NOSIG
  • 201200Z 30005MPS 270V350 9999 FEW///CB 25/19 Q1011 R10/090070 NOSIG
  • 201130Z 31004MPS 270V360 9999 FEW040CB SCT040 24/19 Q1011 R10/090070 NOSIG

TAF TAF UKLU
Valid from the 20 at 15:00 until the 21 at 00:00 UTC


201405Z 2015/2024 30005MPS 9999 NSC TX25/2015Z TN18/2024Z
TEMPO 2015/2021 34005G10MPS SCT040CB
No reported NOTAMs for that airfield.
1 SIGMET reported for the L'VIV FIR (UKLV) :
 
Embedded thunderstorms and hail
UKLV SIGMET 1 VALID 201240/201500 UKLW
UKLV LVIV FIR/UIR EMBD TSGR FCST W OF E02630 TOP FL450 MOV SE 20KMH INTSF=



MET'MAP, your aeronautical weather chart ! - Copyright ORBIFLY December 2007 - Disclaimer

ORBIFLY MET'MAP TEAM :

Programming & Development : Alexandra Zaïnal
Concept & Development : Baudouin d'Aumeries
Co-Development & Prog : Marc-Olivier Méhu
Technical & hardware support : Manuel Goepfert

Contact : metmap@orbifly.com




SOURCES & CREDITS :

   NOAA